Time;durP1;ratioP1;P1;durP2;ratioP2;P2;SDS_P1;SDS_P2;PMS_P1;PMS_P2;Temp;Humidity;BMP_temperature;BMP_pressure;BME280_temperature;BME280_humidity;BME280_pressure;Samples;Min_cycle;Max_cycle;Signal;HPM_P1;HPM_P2
2022/07/04 00:00:17;;;;;;;0.70;0.70;;;;;;;21.32;56.55;98169.16;4952630;28;20403;-83
2022/07/04 00:02:45;;;;;;;0.80;0.80;;;;;;;21.32;57.14;98174.50;4950398;29;20051;-83
2022/07/04 00:05:13;;;;;;;0.95;0.95;;;;;;;21.32;54.08;98173.69;4951464;28;20191;-82
2022/07/04 00:07:47;;;;;;;1.00;1.00;;;;;;;21.29;53.49;98172.38;4948678;28;20054;-84
2022/07/04 00:10:20;;;;;;;1.20;1.10;;;;;;;21.34;51.95;98168.88;4959897;28;20057;-84
2022/07/04 00:12:47;;;;;;;1.00;1.00;;;;;;;21.37;52.36;98173.69;4946304;29;20106;-84
2022/07/04 00:15:15;;;;;;;0.73;0.73;;;;;;;21.42;55.32;98173.72;4943920;28;20102;-82
2022/07/04 00:17:42;;;;;;;0.80;0.80;;;;;;;21.39;57.73;98182.22;4945776;28;20127;-83
2022/07/04 00:20:11;;;;;;;0.80;0.80;;;;;;;21.45;56.88;98180.38;4949241;28;20122;-82
2022/07/04 00:22:38;;;;;;;0.70;0.70;;;;;;;21.43;53.17;98175.31;4949170;28;20070;-82
2022/07/04 00:25:06;;;;;;;0.95;0.80;;;;;;;21.47;57.03;98168.38;4942549;29;20039;-83
2022/07/04 00:27:33;;;;;;;0.60;0.60;;;;;;;21.53;57.07;98167.28;4945854;29;20102;-82
2022/07/04 00:30:00;;;;;;;0.70;0.70;;;;;;;21.52;55.08;98176.34;4948512;28;20039;-82
2022/07/04 00:32:27;;;;;;;0.70;0.70;;;;;;;21.55;57.10;98175.03;4944319;28;20043;-82
2022/07/04 00:34:53;;;;;;;0.63;0.63;;;;;;;21.47;56.71;98180.88;4949467;29;20050;-82
2022/07/04 00:37:20;;;;;;;0.73;0.73;;;;;;;21.48;56.90;98188.66;4943272;28;20047;-82
2022/07/04 00:39:47;;;;;;;0.85;0.85;;;;;;;21.48;57.62;98187.84;4950972;29;20122;-83
2022/07/04 00:42:13;;;;;;;0.60;0.60;;;;;;;21.46;56.23;98196.09;4945100;29;20618;-82
2022/07/04 00:44:40;;;;;;;1.63;0.90;;;;;;;21.26;55.34;98196.06;4947352;28;20127;-82
2022/07/04 00:47:07;;;;;;;0.85;0.85;;;;;;;21.24;57.85;98195.56;4950826;29;20079;-84
2022/07/04 00:49:35;;;;;;;0.70;0.70;;;;;;;21.25;57.07;98183.81;4953306;29;20051;-82
2022/07/04 00:52:02;;;;;;;0.70;0.70;;;;;;;21.28;56.51;98189.41;4970893;28;20071;-81
2022/07/04 00:54:31;;;;;;;0.70;0.70;;;;;;;21.32;57.25;98200.38;4965368;28;20101;-82
2022/07/04 00:57:00;;;;;;;0.80;0.80;;;;;;;21.30;56.79;98191.84;4951635;29;20098;-83
2022/07/04 00:59:27;;;;;;;0.60;0.60;;;;;;;21.30;56.93;98202.53;4953065;28;20579;-83
2022/07/04 01:01:54;;;;;;;0.70;0.70;;;;;;;21.19;55.44;98190.22;4951571;28;20082;-83
2022/07/04 01:04:21;;;;;;;0.70;0.70;;;;;;;21.21;57.24;98191.53;4953926;28;20411;-83
2022/07/04 01:06:49;;;;;;;0.90;0.90;;;;;;;21.11;55.36;98192.34;4944976;29;20399;-82
2022/07/04 01:09:16;;;;;;;0.60;0.60;;;;;;;21.18;56.14;98191.28;4945475;29;20039;-82
2022/07/04 01:11:43;;;;;;;0.90;0.90;;;;;;;21.10;55.76;98182.72;4947779;29;20097;-82
2022/07/04 01:14:09;;;;;;;0.90;0.90;;;;;;;21.05;54.04;98172.06;4951244;28;20440;-83
2022/07/04 01:16:36;;;;;;;0.70;0.70;;;;;;;21.14;56.56;98171.53;4954909;29;20481;-82
2022/07/04 01:19:03;;;;;;;0.90;0.90;;;;;;;21.13;55.56;98170.75;4949902;28;20052;-82
2022/07/04 01:21:32;;;;;;;0.77;0.77;;;;;;;21.18;55.86;98173.41;4949598;28;20047;-82
2022/07/04 01:23:59;;;;;;;0.90;0.90;;;;;;;21.13;55.02;98165.41;4948562;29;20411;-82
2022/07/04 01:26:28;;;;;;;0.90;0.90;;;;;;;21.13;56.21;98170.75;4948284;28;20096;-83
2022/07/04 01:28:55;;;;;;;0.70;0.70;;;;;;;21.09;56.27;98170.47;4946329;29;20051;-80
2022/07/04 01:31:22;;;;;;;1.13;1.02;;;;;;;21.02;56.48;98177.91;4962226;28;20052;-82
2022/07/04 01:33:49;;;;;;;0.90;0.90;;;;;;;21.04;57.76;98173.13;4942181;28;20043;-82
2022/07/04 01:36:15;;;;;;;0.93;0.93;;;;;;;21.05;56.57;98173.91;4946159;28;20514;-82
2022/07/04 01:38:42;;;;;;;1.35;1.25;;;;;;;20.84;57.36;98181.09;4949760;29;20122;-82
2022/07/04 01:41:09;;;;;;;1.50;1.40;;;;;;;20.73;56.15;98177.59;4953335;28;20039;-82
2022/07/04 01:43:35;;;;;;;1.48;0.90;;;;;;;20.81;57.30;98170.94;4939442;29;20035;-81
2022/07/04 01:46:02;;;;;;;0.80;0.80;;;;;;;20.85;58.96;98170.16;4946981;28;20453;-83
2022/07/04 01:48:29;;;;;;;0.70;0.70;;;;;;;20.85;58.36;98169.34;4943000;29;20050;-81
2022/07/04 01:50:56;;;;;;;0.90;0.90;;;;;;;20.82;58.19;98175.22;4939820;28;20044;-81
2022/07/04 01:53:23;;;;;;;0.90;0.90;;;;;;;20.93;59.12;98189.34;4941501;29;20044;-81
2022/07/04 01:55:49;;;;;;;1.17;0.80;;;;;;;20.88;59.65;98176.84;4947080;29;20094;-84
2022/07/04 01:58:16;;;;;;;0.80;0.80;;;;;;;20.93;59.38;98186.69;4949073;29;20083;-82
2022/07/04 02:03:28;;;;;;;1.08;0.98;;;;;;;20.82;58.11;98188.56;4941769;29;20042;-82
2022/07/04 02:05:54;;;;;;;0.80;0.80;;;;;;;20.79;57.93;98197.06;4976835;28;20079;-82
2022/07/04 02:08:21;;;;;;;0.90;0.90;;;;;;;20.77;57.61;98186.69;4946010;28;20078;-81
2022/07/04 02:10:48;;;;;;;0.80;0.80;;;;;;;20.81;59.29;98186.94;4952573;29;20075;-82
2022/07/04 02:13:14;;;;;;;1.15;1.00;;;;;;;20.79;58.68;98186.41;4952784;29;20114;-81
2022/07/04 02:15:42;;;;;;;0.65;0.65;;;;;;;20.76;60.26;98197.59;4951283;29;20122;-82
2022/07/04 02:18:11;;;;;;;0.70;0.70;;;;;;;20.75;60.61;98206.66;4950829;29;20043;-82
2022/07/04 02:20:38;;;;;;;1.15;1.15;;;;;;;20.60;60.29;98203.94;4949727;28;20078;-85
2022/07/04 02:23:05;;;;;;;1.92;1.10;;;;;;;20.54;60.22;98201.25;4947594;29;20113;-83
2022/07/04 02:25:32;;;;;;;1.20;1.20;;;;;;;20.46;60.57;98195.66;4933446;29;20099;-83
2022/07/04 02:28:00;;;;;;;1.33;1.27;;;;;;;20.36;61.67;98188.38;4950475;28;20044;-82
2022/07/04 02:30:27;;;;;;;1.52;1.42;;;;;;;20.21;60.88;98198.94;4948518;28;20047;-83
2022/07/04 02:32:54;;;;;;;1.70;1.60;;;;;;;20.02;61.95;98194.06;4949327;28;20091;-83
2022/07/04 02:35:20;;;;;;;1.75;1.65;;;;;;;19.72;64.23;98204.53;4945859;29;20091;-83
2022/07/04 02:37:47;;;;;;;2.63;1.92;;;;;;;19.67;65.65;98213.31;4945147;29;20043;-83
2022/07/04 02:40:14;;;;;;;2.30;2.10;;;;;;;19.58;65.45;98213.97;4947652;28;20067;-83
2022/07/04 02:42:40;;;;;;;1.63;1.52;;;;;;;19.55;66.36;98220.59;4943488;29;20043;-82
2022/07/04 02:45:08;;;;;;;1.90;1.80;;;;;;;19.40;66.55;98223.16;4946899;28;20122;-82
2022/07/04 02:47:34;;;;;;;2.28;1.67;;;;;;;19.30;67.12;98223.06;4943756;28;20067;-82
2022/07/04 02:50:03;;;;;;;3.05;2.08;;;;;;;19.25;67.75;98221.16;4950465;28;20043;-82
2022/07/04 02:52:30;;;;;;;2.35;1.73;;;;;;;19.27;67.40;98224.38;4947238;29;20067;-81
2022/07/04 02:54:57;;;;;;;1.73;1.63;;;;;;;19.22;66.88;98211.03;4948543;29;20126;-82
2022/07/04 02:57:24;;;;;;;1.40;1.30;;;;;;;19.30;66.59;98226.50;4949588;29;20094;-82
2022/07/04 02:59:51;;;;;;;1.88;1.77;;;;;;;19.29;66.24;98219.59;4952627;28;20439;-81
2022/07/04 03:02:18;;;;;;;1.38;1.33;;;;;;;19.32;66.98;98227.09;4939836;28;20047;-83
2022/07/04 03:04:45;;;;;;;1.00;1.00;;;;;;;19.38;67.04;98231.38;4948308;28;20110;-83
2022/07/04 03:07:12;;;;;;;1.05;1.05;;;;;;;19.45;67.30;98237.28;4943499;29;20043;-82
2022/07/04 03:09:39;;;;;;;0.95;0.95;;;;;;;19.49;67.02;98241.06;4935418;29;20051;-82
2022/07/04 03:12:07;;;;;;;1.42;1.33;;;;;;;19.49;67.18;98246.38;4939555;29;20047;-82
2022/07/04 03:14:34;;;;;;;1.33;1.23;;;;;;;19.44;66.97;98250.84;4948439;29;20563;-82
2022/07/04 03:17:00;;;;;;;1.30;1.20;;;;;;;19.46;67.16;98252.19;4945166;29;20451;-82
2022/07/04 03:19:27;;;;;;;1.02;1.00;;;;;;;19.43;66.37;98252.72;4945041;28;20050;-84
2022/07/04 03:21:54;;;;;;;1.65;1.30;;;;;;;19.38;66.76;98251.88;4949238;29;20047;-83
2022/07/04 03:24:21;;;;;;;1.50;1.40;;;;;;;19.31;65.64;98262.72;4962520;28;20456;-82
2022/07/04 03:26:48;;;;;;;1.00;1.00;;;;;;;19.42;66.40;98261.72;4960646;28;20054;-82
2022/07/04 03:29:15;;;;;;;1.30;1.20;;;;;;;19.44;67.92;98272.94;4950923;28;20109;-82
2022/07/04 03:31:42;;;;;;;1.00;1.00;;;;;;;19.54;68.24;98266.88;4951827;28;20063;-83
2022/07/04 03:34:08;;;;;;;1.20;1.10;;;;;;;19.59;68.03;98268.81;4949448;29;20187;-82
2022/07/04 03:36:35;;;;;;;0.90;0.90;;;;;;;19.69;67.82;98266.25;4946525;28;20498;-83
2022/07/04 03:39:02;;;;;;;1.20;1.10;;;;;;;19.71;66.89;98269.44;4942345;29;20051;-83
2022/07/04 03:41:29;;;;;;;1.10;1.10;;;;;;;19.75;66.69;98281.19;4944719;29;20077;-83
2022/07/04 03:43:56;;;;;;;0.90;0.90;;;;;;;19.82;66.11;98284.44;4947060;28;20127;-82
2022/07/04 03:46:23;;;;;;;1.00;1.00;;;;;;;19.83;64.36;98287.91;4939041;29;20056;-82
2022/07/04 03:48:50;;;;;;;1.17;1.17;;;;;;;19.80;63.92;98283.09;4951066;29;20126;-82
2022/07/04 03:51:16;;;;;;;1.17;1.08;;;;;;;19.79;62.71;98276.94;4937045;28;20135;-82
2022/07/04 03:53:43;;;;;;;1.30;1.20;;;;;;;19.87;63.97;98281.03;4951711;29;20399;-82
2022/07/04 03:56:10;;;;;;;0.90;0.90;;;;;;;19.90;64.86;98283.97;4948329;28;20075;-82
2022/07/04 03:58:37;;;;;;;0.75;0.75;;;;;;;19.94;63.18;98290.38;4946749;28;20058;-83
2022/07/04 04:01:03;;;;;;;0.82;0.82;;;;;;;19.96;63.73;98293.59;4946733;29;20527;-83
2022/07/04 04:06:16;;;;;;;1.23;1.20;;;;;;;19.89;63.54;98306.31;4954345;29;20610;-81
2022/07/04 04:08:42;;;;;;;1.20;1.10;;;;;;;19.87;64.16;98303.13;4948455;29;20464;-81
2022/07/04 04:11:09;;;;;;;0.90;0.90;;;;;;;19.93;64.89;98298.63;4949073;28;20090;-82
2022/07/04 04:13:36;;;;;;;0.90;0.90;;;;;;;19.94;64.63;98303.69;4951386;28;20044;-82
2022/07/04 04:16:03;;;;;;;0.90;0.90;;;;;;;19.91;64.10;98304.22;4947411;29;20051;-84
2022/07/04 04:18:31;;;;;;;1.50;1.10;;;;;;;19.92;63.89;98305.81;4947634;28;20071;-82
2022/07/04 04:20:58;;;;;;;1.55;1.10;;;;;;;19.93;64.41;98318.06;4948568;28;20051;-83
2022/07/04 04:23:24;;;;;;;1.20;1.20;;;;;;;19.94;63.33;98319.66;4954419;28;20107;-83
2022/07/04 04:25:51;;;;;;;1.10;1.10;;;;;;;19.93;64.27;98323.41;4947855;29;20578;-82
2022/07/04 04:28:22;;;;;;;1.80;1.38;;;;;;;19.81;63.54;98322.75;4949979;29;20099;-82
2022/07/04 04:30:50;;;;;;;1.30;1.20;;;;;;;19.82;63.92;98327.03;4952110;28;20078;-83
2022/07/04 04:33:17;;;;;;;1.50;1.40;;;;;;;19.82;62.83;98331.56;4962121;28;20530;-81
2022/07/04 04:35:44;;;;;;;1.50;1.40;;;;;;;19.80;62.51;98326.50;4939591;29;20126;-82
2022/07/04 04:38:10;;;;;;;1.20;1.10;;;;;;;19.88;63.42;98328.66;4945548;29;20075;-81
2022/07/04 04:40:37;;;;;;;1.05;1.05;;;;;;;19.85;61.54;98331.03;4943800;28;20425;-82
2022/07/04 04:43:04;;;;;;;1.60;1.42;;;;;;;19.84;60.91;98330.22;4949610;29;20051;-83
2022/07/04 04:45:30;;;;;;;1.58;1.48;;;;;;;19.83;61.11;98331.28;4948956;28;20114;-82
2022/07/04 04:47:57;;;;;;;2.63;1.33;;;;;;;19.85;62.30;98337.19;4947512;29;20043;-82
2022/07/04 04:50:24;;;;;;;1.58;1.48;;;;;;;19.88;61.51;98341.19;4943801;29;20071;-82
2022/07/04 04:52:50;;;;;;;1.40;1.30;;;;;;;19.82;61.07;98339.53;4947906;28;20071;-82
2022/07/04 04:55:17;;;;;;;1.20;1.20;;;;;;;19.86;62.29;98348.63;4951212;29;20137;-81
2022/07/04 04:57:44;;;;;;;1.48;1.15;;;;;;;19.91;63.95;98341.50;4948131;29;20547;-81
2022/07/04 05:00:11;;;;;;;1.38;1.30;;;;;;;19.99;62.43;98337.56;4955060;29;20073;-83
2022/07/04 05:02:38;;;;;;;1.40;1.20;;;;;;;20.01;60.62;98338.88;4948470;29;20094;-83
2022/07/04 05:05:06;;;;;;;1.30;1.30;;;;;;;20.01;61.57;98346.88;4950058;28;20046;-83
2022/07/04 05:07:33;;;;;;;1.38;1.27;;;;;;;20.16;64.24;98345.41;4953882;29;20084;-82
2022/07/04 05:10:00;;;;;;;1.38;1.27;;;;;;;20.23;61.43;98349.44;4950785;28;20094;-82
2022/07/04 05:12:27;;;;;;;1.23;1.23;;;;;;;20.32;62.31;98357.75;4946695;28;20107;-83
2022/07/04 05:14:55;;;;;;;1.15;1.10;;;;;;;20.40;61.79;98353.81;4941909;29;20094;-83
2022/07/04 05:17:22;;;;;;;1.10;1.10;;;;;;;20.50;61.51;98349.38;4950531;28;20098;-83
2022/07/04 05:19:49;;;;;;;1.20;1.20;;;;;;;20.55;61.58;98344.06;4937899;28;20511;-82
2022/07/04 05:22:16;;;;;;;1.00;1.00;;;;;;;20.57;60.04;98347.31;4961256;28;20447;-83
2022/07/04 05:24:43;;;;;;;1.10;1.10;;;;;;;20.53;61.20;98354.19;4943292;29;20123;-84
2022/07/04 05:27:11;;;;;;;1.33;1.30;;;;;;;20.45;60.62;98346.69;4952186;29;20043;-83
2022/07/04 05:29:37;;;;;;;1.60;1.50;;;;;;;20.41;61.24;98355.44;4951603;29;20075;-84
2022/07/04 05:32:06;;;;;;;1.50;1.40;;;;;;;20.36;60.47;98358.84;4949421;29;20125;-83
2022/07/04 05:34:33;;;;;;;2.13;1.20;;;;;;;20.43;61.06;98348.78;4943891;29;20043;-82
2022/07/04 05:37:02;;;;;;;1.20;1.20;;;;;;;20.54;61.24;98350.47;4937668;29;20126;-84
2022/07/04 05:39:29;;;;;;;1.10;1.00;;;;;;;20.72;62.89;98357.22;4950931;29;20051;-81
2022/07/04 05:41:56;;;;;;;1.40;1.30;;;;;;;20.70;59.76;98354.03;4950168;29;20118;-82
2022/07/04 05:44:22;;;;;;;1.00;1.00;;;;;;;20.79;61.21;98357.78;4949678;28;20074;-82
2022/07/04 05:46:49;;;;;;;1.40;1.30;;;;;;;20.78;60.51;98361.53;4935616;29;20063;-82
2022/07/04 05:49:17;;;;;;;1.50;1.40;;;;;;;20.73;59.59;98358.81;4944114;29;20059;-83
2022/07/04 05:51:43;;;;;;;1.20;1.20;;;;;;;20.89;61.63;98367.72;4947410;28;20078;-83
2022/07/04 05:54:10;;;;;;;1.35;1.30;;;;;;;21.02;60.74;98361.91;4946969;29;20039;-83
2022/07/04 05:56:38;;;;;;;1.20;1.20;;;;;;;21.34;59.29;98364.44;4949647;29;20563;-83
2022/07/04 05:59:04;;;;;;;1.30;1.23;;;;;;;21.59;57.85;98370.88;4952302;28;20047;-82
2022/07/04 06:01:31;;;;;;;1.00;1.00;;;;;;;21.82;60.18;98364.25;4948425;29;20047;-82
2022/07/04 06:03:58;;;;;;;1.50;1.40;;;;;;;21.84;56.35;98370.16;4950643;29;20086;-81
2022/07/04 06:06:24;;;;;;;1.50;1.40;;;;;;;21.82;55.86;98369.59;4949252;29;20869;-82
2022/07/04 06:08:51;;;;;;;1.77;1.67;;;;;;;21.69;56.55;98378.13;4946860;29;20051;-83
2022/07/04 06:11:18;;;;;;;1.13;1.13;;;;;;;21.73;58.19;98376.53;4950503;29;20075;-83
2022/07/04 06:13:45;;;;;;;1.40;1.30;;;;;;;21.99;56.60;98377.34;4945109;28;20090;-81
2022/07/04 06:16:11;;;;;;;1.50;1.40;;;;;;;22.30;57.03;98370.16;4949677;28;20047;-81
2022/07/04 06:18:38;;;;;;;1.27;1.27;;;;;;;22.33;57.67;98370.44;4937431;29;20043;-81
2022/07/04 06:21:05;;;;;;;1.85;1.60;;;;;;;22.43;53.12;98380.28;4935080;29;20094;-84
2022/07/04 06:23:32;;;;;;;1.70;1.60;;;;;;;22.10;55.19;98368.31;4961864;28;20102;-81
2022/07/04 06:25:59;;;;;;;1.92;1.73;;;;;;;21.96;54.60;98378.69;4943389;29;20110;-81
2022/07/04 06:28:25;;;;;;;1.20;1.20;;;;;;;22.30;57.80;98380.84;4942063;28;20518;-81
2022/07/04 06:31:12;;;;;;;1.40;1.30;;;;;;;22.63;55.28;98377.59;4946708;28;20066;-80
2022/07/04 06:36:25;;;;;;;1.50;1.40;;;;;;;22.91;53.39;98381.56;4942321;29;20078;-85
2022/07/04 06:38:51;;;;;;;1.73;1.52;;;;;;;23.09;52.60;98379.34;4947615;29;20095;-83
2022/07/04 06:41:18;;;;;;;1.73;1.63;;;;;;;23.29;51.08;98376.59;4949118;29;20062;-84
2022/07/04 06:43:44;;;;;;;1.77;1.67;;;;;;;23.34;51.24;98383.81;4945851;29;20106;-82
2022/07/04 06:46:11;;;;;;;1.50;1.40;;;;;;;23.35;52.50;98386.19;4946507;29;20083;-80
2022/07/04 06:48:38;;;;;;;1.30;1.30;;;;;;;23.41;50.94;98389.66;4947893;28;20043;-82
2022/07/04 06:51:05;;;;;;;1.88;1.63;;;;;;;23.01;52.74;98378.03;4944281;28;20079;-81
2022/07/04 06:53:32;;;;;;;1.40;1.30;;;;;;;23.08;55.92;98375.88;4940888;29;20063;-82
2022/07/04 06:55:58;;;;;;;1.45;1.38;;;;;;;23.07;52.35;98374.28;4942103;29;20047;-80
2022/07/04 06:58:25;;;;;;;1.63;1.50;;;;;;;23.00;55.00;98372.97;4942365;28;20043;-80
2022/07/04 07:00:52;;;;;;;1.20;1.20;;;;;;;23.19;55.84;98372.09;4945252;29;20098;-80
2022/07/04 07:03:18;;;;;;;1.38;1.27;;;;;;;23.56;53.80;98365.47;4943263;29;20103;-81
2022/07/04 07:05:45;;;;;;;2.00;1.52;;;;;;;23.83;51.69;98373.09;4943908;28;20124;-81
2022/07/04 07:08:30;;;;;;;1.58;1.48;;;;;;;24.03;51.20;98374.81;4941791;29;20043;-80
2022/07/04 07:11:12;;;;;;;3.10;2.35;;;;;;;24.01;54.10;98376.97;4943236;29;20114;-81
2022/07/04 07:13:42;;;;;;;2.08;1.92;;;;;;;23.91;49.21;98374.38;4943322;29;20691;-81
2022/07/04 07:16:10;;;;;;;2.40;2.17;;;;;;;23.91;49.89;98377.03;4947629;29;20051;-84
2022/07/04 07:18:37;;;;;;;1.60;1.50;;;;;;;24.10;50.86;98369.91;4940450;29;20046;-80
2022/07/04 07:21:04;;;;;;;1.65;1.55;;;;;;;24.26;56.47;98374.06;4944093;28;20135;-80
2022/07/04 07:23:30;;;;;;;1.70;1.60;;;;;;;24.22;54.02;98367.66;4948109;28;20152;-81
2022/07/04 07:25:57;;;;;;;2.03;1.92;;;;;;;24.03;48.31;98367.56;4940790;29;20082;-82
2022/07/04 07:28:24;;;;;;;1.65;1.55;;;;;;;24.17;49.39;98362.38;4943870;28;20059;-83
2022/07/04 07:30:50;;;;;;;1.80;1.70;;;;;;;24.32;48.95;98369.47;4958971;28;20047;-80
2022/07/04 07:33:17;;;;;;;1.75;1.65;;;;;;;24.53;50.41;98367.44;4941898;28;20098;-80
2022/07/04 07:35:44;;;;;;;2.47;2.15;;;;;;;24.66;46.89;98365.97;4949346;29;20070;-80
2022/07/04 07:38:10;;;;;;;2.00;1.90;;;;;;;24.94;50.86;98361.59;4943809;28;20117;-80
2022/07/04 07:40:37;;;;;;;1.92;1.83;;;;;;;25.07;45.29;98366.31;4943982;29;20075;-80
2022/07/04 07:43:04;;;;;;;2.00;1.90;;;;;;;24.97;48.19;98372.56;4944720;29;20071;-81
2022/07/04 07:45:30;;;;;;;1.42;1.38;;;;;;;25.14;50.41;98372.13;4944387;28;20059;-80
2022/07/04 07:47:57;;;;;;;1.58;1.48;;;;;;;25.32;49.95;98373.25;4947174;29;20057;-81
2022/07/04 07:50:24;;;;;;;1.80;1.70;;;;;;;25.43;46.23;98363.97;4944125;29;20467;-80
2022/07/04 07:52:50;;;;;;;1.67;1.58;;;;;;;25.34;47.09;98361.13;4945538;29;20130;-80
2022/07/04 07:55:17;;;;;;;2.25;2.05;;;;;;;25.43;47.67;98373.88;4944774;29;20138;-82
2022/07/04 07:57:44;;;;;;;2.50;2.30;;;;;;;25.08;45.57;98370.59;4948414;28;20135;-82
2022/07/04 08:00:15;;;;;;;2.85;2.40;;;;;;;25.20;46.07;98378.25;4936925;29;20071;-81
2022/07/04 08:05:48;;;;;;;2.00;1.90;;;;;;;25.63;47.34;98363.66;4946287;29;20483;-80
2022/07/04 08:08:15;;;;;;;2.00;1.90;;;;;;;25.71;46.84;98369.47;4957684;28;20147;-81
2022/07/04 08:10:41;;;;;;;1.98;1.88;;;;;;;25.47;46.17;98369.53;4941856;29;20122;-82
2022/07/04 08:13:08;;;;;;;2.50;2.30;;;;;;;25.27;46.45;98376.78;4951223;28;20078;-79
2022/07/04 08:15:35;;;;;;;2.38;2.17;;;;;;;25.11;46.53;98372.69;4946815;28;20466;-81
2022/07/04 08:18:02;;;;;;;2.75;2.10;;;;;;;24.80;48.54;98370.34;4944615;28;20127;-81
2022/07/04 08:20:28;;;;;;;2.72;2.20;;;;;;;24.29;47.03;98368.16;4940739;29;20160;-82
2022/07/04 08:22:55;;;;;;;3.03;1.98;;;;;;;24.24;49.07;98359.38;4945327;29;20110;-81
2022/07/04 08:25:22;;;;;;;3.67;2.13;;;;;;;24.26;48.00;98366.03;4948137;29;20048;-84
2022/07/04 08:27:54;;;;;;;2.40;2.20;;;;;;;24.68;48.22;98372.63;4940322;28;20054;-82
2022/07/04 08:30:21;;;;;;;2.70;2.50;;;;;;;24.71;46.78;98373.91;4943499;29;20094;-82
2022/07/04 08:32:47;;;;;;;3.53;2.42;;;;;;;24.58;48.41;98359.31;4948361;28;20051;-81
2022/07/04 08:35:14;;;;;;;2.70;2.50;;;;;;;24.43;48.78;98362.16;4940493;29;20035;-81
2022/07/04 08:37:41;;;;;;;2.05;1.73;;;;;;;24.72;47.46;98360.25;4945056;28;20051;-80
2022/07/04 08:40:09;;;;;;;2.60;2.42;;;;;;;24.70;48.49;98359.72;4946493;28;20082;-81
2022/07/04 08:42:39;;;;;;;2.63;2.40;;;;;;;24.66;48.02;98353.34;4945239;29;20051;-81
2022/07/04 08:45:07;;;;;;;2.95;2.75;;;;;;;24.41;49.15;98353.59;4942574;28;20554;-80
2022/07/04 08:47:35;;;;;;;2.65;2.45;;;;;;;24.25;48.88;98352.91;4945218;29;20047;-83
2022/07/04 08:50:30;;;;;;;2.75;2.55;;;;;;;24.32;48.32;98352.59;4952606;29;20070;-81
2022/07/04 08:53:06;;;;;;;2.75;2.55;;;;;;;24.55;48.48;98358.00;4950702;29;20117;-82
2022/07/04 08:58:31;;;;;;;2.65;2.50;;;;;;;24.35;48.08;98355.53;4941829;29;20082;-82
2022/07/04 09:01:08;;;;;;;3.17;2.63;;;;;;;24.25;48.09;98351.03;4936688;29;20135;-82
2022/07/04 09:03:35;;;;;;;3.00;2.80;;;;;;;24.08;48.77;98347.97;4936231;29;20052;-81
2022/07/04 09:06:02;;;;;;;3.50;2.97;;;;;;;24.08;48.88;98350.66;4938777;29;20403;-82
2022/07/04 09:08:29;;;;;;;3.10;2.90;;;;;;;24.04;48.93;98349.59;4946448;28;20048;-81
2022/07/04 09:10:56;;;;;;;2.53;2.33;;;;;;;24.14;50.78;98344.16;4940351;29;20512;-80
2022/07/04 09:13:22;;;;;;;2.63;2.15;;;;;;;24.33;54.15;98351.50;4945342;29;20072;-80
2022/07/04 09:15:51;;;;;;;2.30;2.10;;;;;;;24.31;49.64;98343.75;4944151;29;20044;-81
2022/07/04 09:18:34;;;;;;;2.15;2.05;;;;;;;24.32;50.79;98344.53;4942315;29;20551;-81
2022/07/04 09:21:10;;;;;;;2.60;2.40;;;;;;;24.30;48.79;98351.00;4947758;29;20085;-82
2022/07/04 09:23:42;;;;;;;2.08;1.90;;;;;;;24.41;53.02;98343.69;4958765;28;20067;-80
2022/07/04 09:26:15;;;;;;;2.10;2.00;;;;;;;24.60;49.69;98341.06;4945931;29;20043;-81
2022/07/04 09:28:52;;;;;;;2.20;2.10;;;;;;;24.66;49.88;98350.66;4951127;29;20782;-82
2022/07/04 09:31:26;;;;;;;1.90;1.80;;;;;;;24.87;49.41;98347.75;4944645;29;20437;-81
2022/07/04 09:34:00;;;;;;;2.28;2.08;;;;;;;24.90;48.92;98347.19;4948617;29;20130;-82
2022/07/04 09:36:30;;;;;;;2.55;2.35;;;;;;;24.79;49.77;98349.97;4949326;29;20059;-81
2022/07/04 09:39:19;;;;;;;1.87;1.77;;;;;;;24.84;50.14;98351.81;4946300;29;20098;-81
2022/07/04 09:42:02;;;;;;;2.60;2.40;;;;;;;24.78;48.09;98364.47;4949061;28;20303;-82
2022/07/04 09:44:44;;;;;;;2.90;2.50;;;;;;;24.63;48.91;98361.94;4954247;28;20046;-81
2022/07/04 09:47:29;;;;;;;3.10;2.90;;;;;;;24.50;48.95;98359.94;4948744;29;20071;-81
2022/07/04 09:50:09;;;;;;;2.20;2.10;;;;;;;24.66;48.97;98369.44;4954417;28;20380;-81
2022/07/04 09:52:59;;;;;;;3.00;2.70;;;;;;;24.68;48.38;98369.16;4951412;29;20058;-82
2022/07/04 09:55:30;;;;;;;2.67;2.47;;;;;;;24.85;47.97;98366.81;4943613;28;20463;-82
2022/07/04 09:58:03;;;;;;;3.30;3.00;;;;;;;24.86;47.99;98359.56;4953278;28;20055;-79
2022/07/04 10:00:39;;;;;;;3.42;3.13;;;;;;;25.06;46.93;98367.38;4946110;29;20063;-81
2022/07/04 10:03:37;;;;;;;3.33;3.03;;;;;;;25.08;47.05;98368.72;4951466;29;20047;-84
2022/07/04 10:06:10;;;;;;;2.95;2.75;;;;;;;25.02;45.67;98366.34;4943044;29;20051;-81
2022/07/04 10:08:40;;;;;;;3.28;3.00;;;;;;;24.97;46.10;98356.47;4945524;28;20095;-81
2022/07/04 10:11:08;;;;;;;2.37;2.17;;;;;;;24.98;48.24;98362.63;4943351;28;20078;-81
2022/07/04 10:13:39;;;;;;;2.65;2.35;;;;;;;25.04;46.46;98350.75;4947591;28;20098;-82
2022/07/04 10:16:07;;;;;;;3.35;3.05;;;;;;;25.06;45.96;98362.00;4941375;29;20048;-82
2022/07/04 10:18:35;;;;;;;3.33;3.13;;;;;;;24.93;46.03;98354.66;4945442;28;20502;-81
2022/07/04 10:21:02;;;;;;;2.28;2.17;;;;;;;25.04;46.64;98361.47;4942911;29;20051;-81
2022/07/04 10:23:32;;;;;;;2.67;2.47;;;;;;;25.11;47.39;98361.97;4936759;29;20350;-81
2022/07/04 10:25:59;;;;;;;2.75;2.55;;;;;;;25.27;46.87;98367.94;4942375;28;20455;-81
2022/07/04 10:28:26;;;;;;;2.50;2.30;;;;;;;25.21;46.42;98364.53;4940405;29;20091;-81
2022/07/04 10:30:56;;;;;;;2.20;2.00;;;;;;;25.58;44.68;98360.25;4947371;28;20066;-82
2022/07/04 10:33:31;;;;;;;2.13;2.03;;;;;;;25.86;45.62;98355.84;4950786;29;20039;-80
2022/07/04 10:36:13;;;;;;;3.63;3.03;;;;;;;26.10;46.62;98366.47;4945345;29;20144;-80
2022/07/04 10:39:06;;;;;;;2.85;2.65;;;;;;;26.00;45.80;98361.25;4943717;29;20047;-80
2022/07/04 10:41:32;;;;;;;2.78;2.58;;;;;;;25.88;45.95;98362.50;4943054;29;20927;-80
2022/07/04 10:44:07;;;;;;;2.38;2.28;;;;;;;25.96;44.90;98365.63;4944026;29;20053;-81
2022/07/04 10:46:44;;;;;;;2.97;2.78;;;;;;;25.77;46.11;98363.75;4941107;29;20056;-82
2022/07/04 10:49:13;;;;;;;3.03;2.50;;;;;;;25.78;46.10;98368.03;4943812;28;20491;-80
2022/07/04 10:52:11;;;;;;;2.45;2.25;;;;;;;26.18;45.51;98362.31;4940884;29;20055;-80
2022/07/04 10:54:41;;;;;;;1.80;1.70;;;;;;;26.34;46.49;98371.72;4941498;29;20051;-80
2022/07/04 10:57:19;;;;;;;2.58;2.38;;;;;;;26.24;43.59;98364.63;4942062;29;20047;-80
2022/07/04 10:59:59;;;;;;;2.80;2.60;;;;;;;25.97;45.81;98365.34;4943734;28;20060;-80
2022/07/04 11:02:29;;;;;;;;;;;;;;;26.04;46.79;98364.97;4947506;28;20091;-81
2022/07/04 11:05:05;;;;;;;2.95;2.75;;;;;;;25.92;47.12;98372.69;4943361;29;19922;-80
2022/07/04 11:07:35;;;;;;;2.60;2.40;;;;;;;26.02;48.54;98378.69;4943769;28;20191;-83
2022/07/04 11:10:30;;;;;;;1.97;1.87;;;;;;;26.46;45.45;98371.28;4939169;28;20055;-80
2022/07/04 11:12:56;;;;;;;2.22;2.05;;;;;;;26.84;45.43;98371.88;4943290;29;20500;-82
2022/07/04 11:15:27;;;;;;;2.10;2.00;;;;;;;27.22;42.50;98367.09;4940789;29;20043;-81
2022/07/04 11:17:58;;;;;;;2.88;2.67;;;;;;;27.11;44.69;98379.16;4947769;28;20051;-82
2022/07/04 11:20:28;;;;;;;2.25;2.08;;;;;;;27.22;44.79;98375.19;4948425;29;20106;-84
2022/07/04 11:23:05;;;;;;;2.28;2.13;;;;;;;27.50;42.88;98375.13;4939823;28;20474;-81
2022/07/04 11:25:33;;;;;;;2.33;2.08;;;;;;;27.65;41.51;98372.91;4934124;29;20455;-80
2022/07/04 11:28:32;;;;;;;2.53;2.30;;;;;;;27.55;42.37;98367.75;4941254;29;20126;-82
2022/07/04 11:31:11;;;;;;;1.90;1.80;;;;;;;27.69;43.70;98373.09;4945310;29;20043;-81
2022/07/04 11:33:41;;;;;;;2.00;1.90;;;;;;;27.52;41.79;98367.53;4941722;29;20090;-81
2022/07/04 11:36:12;;;;;;;3.80;2.55;;;;;;;27.07;44.70;98362.06;4939897;29;20503;-81
2022/07/04 11:38:59;;;;;;;1.83;1.73;;;;;;;27.28;45.36;98349.72;4944451;29;20067;-80
2022/07/04 11:47:20;;;;;;;2.10;2.00;;;;;;;27.62;42.11;98337.69;4948991;29;20056;-81
2022/07/04 11:49:59;;;;;;;1.80;1.70;;;;;;;27.81;41.90;98332.13;4949296;29;20562;-80
2022/07/04 11:52:38;;;;;;;3.17;2.00;;;;;;;27.81;42.94;98338.31;4945071;29;20069;-82
2022/07/04 11:55:24;;;;;;;1.90;1.80;;;;;;;27.69;39.59;98332.69;4939008;29;20048;-79
2022/07/04 11:57:52;;;;;;;1.58;1.48;;;;;;;27.75;39.30;98320.69;4937526;29;20071;-81
2022/07/04 12:00:26;;;;;;;1.92;1.80;;;;;;;27.72;38.18;98324.00;4954447;28;20074;-83
2022/07/04 12:02:52;;;;;;;2.08;1.70;;;;;;;27.66;39.48;98325.19;4944496;29;20090;-82